sensor_id;sensor_type;location;lat;lon;timestamp;temperature;humidity
23629;DHT22;11991;57.150;-2.134;2023-02-02T00:01:39;5.80;99.90
23629;DHT22;11991;57.150;-2.134;2023-02-02T00:04:08;5.80;99.90
23629;DHT22;11991;57.150;-2.134;2023-02-02T00:06:35;5.80;99.90
23629;DHT22;11991;57.150;-2.134;2023-02-02T00:09:03;5.80;99.90
23629;DHT22;11991;57.150;-2.134;2023-02-02T00:11:30;5.80;99.90
23629;DHT22;11991;57.150;-2.134;2023-02-02T00:13:57;5.80;99.90
23629;DHT22;11991;57.150;-2.134;2023-02-02T00:19:02;5.80;99.90
23629;DHT22;11991;57.150;-2.134;2023-02-02T00:21:34;5.80;99.90
23629;DHT22;11991;57.150;-2.134;2023-02-02T00:24:02;5.80;99.90
23629;DHT22;11991;57.150;-2.134;2023-02-02T00:26:30;5.80;99.90
23629;DHT22;11991;57.150;-2.134;2023-02-02T00:28:57;5.70;99.90
23629;DHT22;11991;57.150;-2.134;2023-02-02T00:31:25;5.70;99.90
23629;DHT22;11991;57.150;-2.134;2023-02-02T00:33:52;5.70;99.90
23629;DHT22;11991;57.150;-2.134;2023-02-02T00:36:20;5.70;99.90
23629;DHT22;11991;57.150;-2.134;2023-02-02T00:38:48;5.70;99.90
23629;DHT22;11991;57.150;-2.134;2023-02-02T00:41:16;5.70;99.90
23629;DHT22;11991;57.150;-2.134;2023-02-02T00:43:44;5.70;99.90
23629;DHT22;11991;57.150;-2.134;2023-02-02T00:46:31;5.70;99.90
23629;DHT22;11991;57.150;-2.134;2023-02-02T00:48:59;5.70;99.90
23629;DHT22;11991;57.150;-2.134;2023-02-02T00:51:26;5.70;99.90
23629;DHT22;11991;57.150;-2.134;2023-02-02T00:53:54;5.70;99.90
23629;DHT22;11991;57.150;-2.134;2023-02-02T00:56:22;5.70;99.90
23629;DHT22;11991;57.150;-2.134;2023-02-02T00:58:49;5.70;99.90
23629;DHT22;11991;57.150;-2.134;2023-02-02T01:01:17;5.70;99.90
23629;DHT22;11991;57.150;-2.134;2023-02-02T01:03:45;5.70;99.90
23629;DHT22;11991;57.150;-2.134;2023-02-02T01:06:13;5.70;99.90
23629;DHT22;11991;57.150;-2.134;2023-02-02T01:08:40;5.70;99.90
23629;DHT22;11991;57.150;-2.134;2023-02-02T01:11:08;5.70;99.90
23629;DHT22;11991;57.150;-2.134;2023-02-02T01:13:35;5.70;99.90
23629;DHT22;11991;57.150;-2.134;2023-02-02T01:16:04;5.70;99.90
23629;DHT22;11991;57.150;-2.134;2023-02-02T01:18:31;5.70;99.90
23629;DHT22;11991;57.150;-2.134;2023-02-02T01:21:05;5.70;99.90
23629;DHT22;11991;57.150;-2.134;2023-02-02T01:23:35;5.70;99.90
23629;DHT22;11991;57.150;-2.134;2023-02-02T01:26:05;5.70;99.90
23629;DHT22;11991;57.150;-2.134;2023-02-02T01:28:33;5.70;99.90
23629;DHT22;11991;57.150;-2.134;2023-02-02T01:31:12;5.70;99.90
23629;DHT22;11991;57.150;-2.134;2023-02-02T01:33:41;5.60;99.90
23629;DHT22;11991;57.150;-2.134;2023-02-02T01:36:12;5.70;99.90
23629;DHT22;11991;57.150;-2.134;2023-02-02T01:38:40;5.70;99.90
23629;DHT22;11991;57.150;-2.134;2023-02-02T01:41:12;5.60;99.90
23629;DHT22;11991;57.150;-2.134;2023-02-02T01:46:11;5.70;99.90
23629;DHT22;11991;57.150;-2.134;2023-02-02T01:48:41;5.70;99.90
23629;DHT22;11991;57.150;-2.134;2023-02-02T01:51:19;5.70;99.90
23629;DHT22;11991;57.150;-2.134;2023-02-02T01:53:49;5.70;99.90
23629;DHT22;11991;57.150;-2.134;2023-02-02T01:56:21;5.70;99.90
23629;DHT22;11991;57.150;-2.134;2023-02-02T01:58:50;5.70;99.90
23629;DHT22;11991;57.150;-2.134;2023-02-02T02:01:18;5.70;99.90
23629;DHT22;11991;57.150;-2.134;2023-02-02T02:03:45;5.70;99.90
23629;DHT22;11991;57.150;-2.134;2023-02-02T02:06:16;5.70;99.90
23629;DHT22;11991;57.150;-2.134;2023-02-02T02:09:02;5.70;99.90
23629;DHT22;11991;57.150;-2.134;2023-02-02T02:11:31;5.60;99.90
23629;DHT22;11991;57.150;-2.134;2023-02-02T02:14:03;5.60;99.90
23629;DHT22;11991;57.150;-2.134;2023-02-02T02:22:13;5.60;99.90
23629;DHT22;11991;57.150;-2.134;2023-02-02T02:31:02;5.50;99.90
23629;DHT22;11991;57.150;-2.134;2023-02-02T02:33:46;5.50;99.90
23629;DHT22;11991;57.150;-2.134;2023-02-02T02:39:02;5.50;99.90
23629;DHT22;11991;57.150;-2.134;2023-02-02T02:41:33;5.50;99.90
23629;DHT22;11991;57.150;-2.134;2023-02-02T02:44:07;5.50;99.90
23629;DHT22;11991;57.150;-2.134;2023-02-02T02:46:37;5.50;99.90
23629;DHT22;11991;57.150;-2.134;2023-02-02T02:49:08;5.50;99.90
23629;DHT22;11991;57.150;-2.134;2023-02-02T02:54:06;5.50;99.90
23629;DHT22;11991;57.150;-2.134;2023-02-02T03:07:33;5.50;99.90
23629;DHT22;11991;57.150;-2.134;2023-02-02T03:10:03;5.50;99.90
23629;DHT22;11991;57.150;-2.134;2023-02-02T03:12:32;5.50;99.90
23629;DHT22;11991;57.150;-2.134;2023-02-02T03:15:04;5.50;99.90
23629;DHT22;11991;57.150;-2.134;2023-02-02T03:17:32;5.50;99.90
23629;DHT22;11991;57.150;-2.134;2023-02-02T03:19:59;5.50;99.90
23629;DHT22;11991;57.150;-2.134;2023-02-02T03:22:26;5.50;99.90
23629;DHT22;11991;57.150;-2.134;2023-02-02T03:24:53;5.50;99.90
23629;DHT22;11991;57.150;-2.134;2023-02-02T03:27:20;5.50;99.90
23629;DHT22;11991;57.150;-2.134;2023-02-02T03:29:48;5.50;99.90
23629;DHT22;11991;57.150;-2.134;2023-02-02T03:32:15;5.50;99.90
23629;DHT22;11991;57.150;-2.134;2023-02-02T03:34:42;5.50;99.90
23629;DHT22;11991;57.150;-2.134;2023-02-02T03:37:10;5.50;99.90
23629;DHT22;11991;57.150;-2.134;2023-02-02T03:39:37;5.50;99.90
23629;DHT22;11991;57.150;-2.134;2023-02-02T03:42:04;5.50;99.90
23629;DHT22;11991;57.150;-2.134;2023-02-02T03:44:31;5.50;99.90
23629;DHT22;11991;57.150;-2.134;2023-02-02T03:46:58;5.50;99.90
23629;DHT22;11991;57.150;-2.134;2023-02-02T03:49:26;5.50;99.90
23629;DHT22;11991;57.150;-2.134;2023-02-02T03:51:53;5.50;99.90
23629;DHT22;11991;57.150;-2.134;2023-02-02T03:54:20;5.50;99.90
23629;DHT22;11991;57.150;-2.134;2023-02-02T03:56:47;5.50;99.90
23629;DHT22;11991;57.150;-2.134;2023-02-02T03:59:14;5.40;99.90
23629;DHT22;11991;57.150;-2.134;2023-02-02T04:01:41;5.40;99.90
23629;DHT22;11991;57.150;-2.134;2023-02-02T04:04:08;5.30;99.90
23629;DHT22;11991;57.150;-2.134;2023-02-02T04:06:36;5.30;99.90
23629;DHT22;11991;57.150;-2.134;2023-02-02T04:09:03;5.30;99.90
23629;DHT22;11991;57.150;-2.134;2023-02-02T04:11:30;5.30;99.90
23629;DHT22;11991;57.150;-2.134;2023-02-02T04:13:57;5.30;99.90
23629;DHT22;11991;57.150;-2.134;2023-02-02T04:16:24;5.30;99.90
23629;DHT22;11991;57.150;-2.134;2023-02-02T04:18:52;5.30;99.90
23629;DHT22;11991;57.150;-2.134;2023-02-02T04:21:19;5.30;99.90
23629;DHT22;11991;57.150;-2.134;2023-02-02T04:23:47;5.30;99.90
23629;DHT22;11991;57.150;-2.134;2023-02-02T04:26:15;5.30;99.90
23629;DHT22;11991;57.150;-2.134;2023-02-02T04:28:42;5.30;99.90
23629;DHT22;11991;57.150;-2.134;2023-02-02T04:31:09;5.30;99.90
23629;DHT22;11991;57.150;-2.134;2023-02-02T04:33:37;5.30;99.90
23629;DHT22;11991;57.150;-2.134;2023-02-02T04:36:04;5.30;99.90
23629;DHT22;11991;57.150;-2.134;2023-02-02T04:38:32;5.30;99.90
23629;DHT22;11991;57.150;-2.134;2023-02-02T04:41:08;5.20;99.90
23629;DHT22;11991;57.150;-2.134;2023-02-02T04:43:36;5.20;99.90
23629;DHT22;11991;57.150;-2.134;2023-02-02T04:46:04;5.20;99.90
23629;DHT22;11991;57.150;-2.134;2023-02-02T04:48:32;5.30;99.90
23629;DHT22;11991;57.150;-2.134;2023-02-02T04:51:01;5.30;99.90
23629;DHT22;11991;57.150;-2.134;2023-02-02T04:53:29;5.30;99.90
23629;DHT22;11991;57.150;-2.134;2023-02-02T04:55:56;5.30;99.90
23629;DHT22;11991;57.150;-2.134;2023-02-02T04:58:24;5.20;99.90
23629;DHT22;11991;57.150;-2.134;2023-02-02T05:00:51;5.20;99.90
23629;DHT22;11991;57.150;-2.134;2023-02-02T05:03:18;5.30;99.90
23629;DHT22;11991;57.150;-2.134;2023-02-02T05:05:45;5.30;99.90
23629;DHT22;11991;57.150;-2.134;2023-02-02T05:08:12;5.30;99.90
23629;DHT22;11991;57.150;-2.134;2023-02-02T05:10:40;5.20;99.90
23629;DHT22;11991;57.150;-2.134;2023-02-02T05:13:10;5.30;99.90
23629;DHT22;11991;57.150;-2.134;2023-02-02T05:15:37;5.30;99.90
23629;DHT22;11991;57.150;-2.134;2023-02-02T05:18:04;5.30;99.90
23629;DHT22;11991;57.150;-2.134;2023-02-02T05:20:31;5.30;99.90
23629;DHT22;11991;57.150;-2.134;2023-02-02T05:22:58;5.40;99.90
23629;DHT22;11991;57.150;-2.134;2023-02-02T05:25:26;5.40;99.90
23629;DHT22;11991;57.150;-2.134;2023-02-02T05:27:53;5.40;99.90
23629;DHT22;11991;57.150;-2.134;2023-02-02T05:30:20;5.40;99.90
23629;DHT22;11991;57.150;-2.134;2023-02-02T05:32:48;5.40;99.90
23629;DHT22;11991;57.150;-2.134;2023-02-02T05:35:15;5.40;99.90
23629;DHT22;11991;57.150;-2.134;2023-02-02T05:37:42;5.40;99.90
23629;DHT22;11991;57.150;-2.134;2023-02-02T05:40:09;5.40;99.90
23629;DHT22;11991;57.150;-2.134;2023-02-02T05:42:37;5.40;99.90
23629;DHT22;11991;57.150;-2.134;2023-02-02T05:45:05;5.40;99.90
23629;DHT22;11991;57.150;-2.134;2023-02-02T05:47:32;5.40;99.90
23629;DHT22;11991;57.150;-2.134;2023-02-02T05:50:01;5.40;99.90
23629;DHT22;11991;57.150;-2.134;2023-02-02T05:52:30;5.40;99.90
23629;DHT22;11991;57.150;-2.134;2023-02-02T05:54:59;5.40;99.90
23629;DHT22;11991;57.150;-2.134;2023-02-02T05:57:26;5.40;99.90
23629;DHT22;11991;57.150;-2.134;2023-02-02T05:59:54;5.40;99.90
23629;DHT22;11991;57.150;-2.134;2023-02-02T06:02:21;5.40;99.90
23629;DHT22;11991;57.150;-2.134;2023-02-02T06:04:48;5.40;99.90
23629;DHT22;11991;57.150;-2.134;2023-02-02T06:07:15;5.40;99.90
23629;DHT22;11991;57.150;-2.134;2023-02-02T06:09:43;5.40;99.90
23629;DHT22;11991;57.150;-2.134;2023-02-02T06:12:10;5.40;99.90
23629;DHT22;11991;57.150;-2.134;2023-02-02T06:14:37;5.40;99.90
23629;DHT22;11991;57.150;-2.134;2023-02-02T06:17:12;5.40;99.90
23629;DHT22;11991;57.150;-2.134;2023-02-02T06:20:13;5.40;99.90
23629;DHT22;11991;57.150;-2.134;2023-02-02T06:22:42;5.40;99.90
23629;DHT22;11991;57.150;-2.134;2023-02-02T06:25:09;5.50;99.90
23629;DHT22;11991;57.150;-2.134;2023-02-02T06:27:37;5.50;99.90
23629;DHT22;11991;57.150;-2.134;2023-02-02T06:30:04;5.50;99.90
23629;DHT22;11991;57.150;-2.134;2023-02-02T06:32:32;5.50;99.90
23629;DHT22;11991;57.150;-2.134;2023-02-02T06:34:59;5.50;99.90
23629;DHT22;11991;57.150;-2.134;2023-02-02T06:37:27;5.50;99.90
23629;DHT22;11991;57.150;-2.134;2023-02-02T06:39:56;5.60;99.90
23629;DHT22;11991;57.150;-2.134;2023-02-02T06:42:23;5.60;99.90
23629;DHT22;11991;57.150;-2.134;2023-02-02T06:44:50;5.60;99.90
23629;DHT22;11991;57.150;-2.134;2023-02-02T06:47:18;5.60;99.90
23629;DHT22;11991;57.150;-2.134;2023-02-02T06:49:45;5.70;99.90
23629;DHT22;11991;57.150;-2.134;2023-02-02T06:52:12;5.70;99.90
23629;DHT22;11991;57.150;-2.134;2023-02-02T06:54:39;5.70;99.90
23629;DHT22;11991;57.150;-2.134;2023-02-02T06:57:06;5.80;99.90
23629;DHT22;11991;57.150;-2.134;2023-02-02T06:59:35;5.80;99.90
23629;DHT22;11991;57.150;-2.134;2023-02-02T07:02:02;5.80;99.90
23629;DHT22;11991;57.150;-2.134;2023-02-02T07:04:30;5.80;99.90
23629;DHT22;11991;57.150;-2.134;2023-02-02T07:06:57;5.80;99.90
23629;DHT22;11991;57.150;-2.134;2023-02-02T07:09:24;5.80;99.90
23629;DHT22;11991;57.150;-2.134;2023-02-02T07:11:51;5.90;99.90
23629;DHT22;11991;57.150;-2.134;2023-02-02T07:14:18;5.90;99.90
23629;DHT22;11991;57.150;-2.134;2023-02-02T07:16:45;5.90;99.90
23629;DHT22;11991;57.150;-2.134;2023-02-02T07:19:12;5.90;99.90
23629;DHT22;11991;57.150;-2.134;2023-02-02T07:21:39;5.90;99.90
23629;DHT22;11991;57.150;-2.134;2023-02-02T07:24:07;5.90;99.90
23629;DHT22;11991;57.150;-2.134;2023-02-02T07:26:35;5.90;99.90
23629;DHT22;11991;57.150;-2.134;2023-02-02T07:29:03;6.00;99.90
23629;DHT22;11991;57.150;-2.134;2023-02-02T07:31:31;6.00;99.90
23629;DHT22;11991;57.150;-2.134;2023-02-02T07:34:02;6.00;99.90
23629;DHT22;11991;57.150;-2.134;2023-02-02T07:36:29;6.00;99.90
23629;DHT22;11991;57.150;-2.134;2023-02-02T07:38:57;6.00;99.90
23629;DHT22;11991;57.150;-2.134;2023-02-02T07:41:24;6.00;99.90
23629;DHT22;11991;57.150;-2.134;2023-02-02T07:43:51;6.00;99.90
23629;DHT22;11991;57.150;-2.134;2023-02-02T07:46:19;6.00;99.90
23629;DHT22;11991;57.150;-2.134;2023-02-02T07:48:47;6.10;99.90
23629;DHT22;11991;57.150;-2.134;2023-02-02T07:51:16;6.10;99.90
23629;DHT22;11991;57.150;-2.134;2023-02-02T07:53:45;6.10;99.90
23629;DHT22;11991;57.150;-2.134;2023-02-02T07:56:20;6.10;99.90
23629;DHT22;11991;57.150;-2.134;2023-02-02T07:58:51;6.10;99.90
23629;DHT22;11991;57.150;-2.134;2023-02-02T08:01:18;6.10;99.90
23629;DHT22;11991;57.150;-2.134;2023-02-02T08:03:49;6.10;99.90
23629;DHT22;11991;57.150;-2.134;2023-02-02T08:06:31;6.10;99.90
23629;DHT22;11991;57.150;-2.134;2023-02-02T08:09:00;6.00;99.90
23629;DHT22;11991;57.150;-2.134;2023-02-02T08:11:27;6.10;99.90
23629;DHT22;11991;57.150;-2.134;2023-02-02T08:13:57;6.10;99.90
23629;DHT22;11991;57.150;-2.134;2023-02-02T08:16:26;6.10;99.90
23629;DHT22;11991;57.150;-2.134;2023-02-02T08:18:54;6.10;99.90
23629;DHT22;11991;57.150;-2.134;2023-02-02T08:21:21;6.10;99.90
23629;DHT22;11991;57.150;-2.134;2023-02-02T08:23:50;6.10;99.90
23629;DHT22;11991;57.150;-2.134;2023-02-02T08:26:21;6.10;99.90
23629;DHT22;11991;57.150;-2.134;2023-02-02T08:28:54;6.10;99.90
23629;DHT22;11991;57.150;-2.134;2023-02-02T08:31:28;6.10;99.90
23629;DHT22;11991;57.150;-2.134;2023-02-02T08:33:56;6.10;99.90
23629;DHT22;11991;57.150;-2.134;2023-02-02T08:36:27;6.10;99.90
23629;DHT22;11991;57.150;-2.134;2023-02-02T08:38:55;6.10;99.90
23629;DHT22;11991;57.150;-2.134;2023-02-02T08:41:29;6.10;99.90
23629;DHT22;11991;57.150;-2.134;2023-02-02T08:43:56;6.10;99.90
23629;DHT22;11991;57.150;-2.134;2023-02-02T08:46:24;6.20;99.90
23629;DHT22;11991;57.150;-2.134;2023-02-02T08:48:52;6.20;99.90
23629;DHT22;11991;57.150;-2.134;2023-02-02T08:51:19;6.20;99.90
23629;DHT22;11991;57.150;-2.134;2023-02-02T08:53:46;6.20;99.90
23629;DHT22;11991;57.150;-2.134;2023-02-02T08:56:16;6.20;99.90
23629;DHT22;11991;57.150;-2.134;2023-02-02T08:58:46;6.20;99.90
23629;DHT22;11991;57.150;-2.134;2023-02-02T09:01:19;6.20;99.90
23629;DHT22;11991;57.150;-2.134;2023-02-02T09:03:47;6.20;99.90
23629;DHT22;11991;57.150;-2.134;2023-02-02T09:06:16;6.30;99.90
23629;DHT22;11991;57.150;-2.134;2023-02-02T09:08:44;6.30;99.90
23629;DHT22;11991;57.150;-2.134;2023-02-02T09:11:17;6.30;99.90
23629;DHT22;11991;57.150;-2.134;2023-02-02T09:13:47;6.40;99.90
23629;DHT22;11991;57.150;-2.134;2023-02-02T09:16:16;6.40;99.90
23629;DHT22;11991;57.150;-2.134;2023-02-02T09:18:44;6.40;99.90
23629;DHT22;11991;57.150;-2.134;2023-02-02T09:21:15;6.50;99.90
23629;DHT22;11991;57.150;-2.134;2023-02-02T09:23:43;6.50;99.90
23629;DHT22;11991;57.150;-2.134;2023-02-02T09:26:16;6.50;99.90
23629;DHT22;11991;57.150;-2.134;2023-02-02T09:28:46;6.60;99.90
23629;DHT22;11991;57.150;-2.134;2023-02-02T09:31:14;6.60;99.90
23629;DHT22;11991;57.150;-2.134;2023-02-02T09:33:42;6.60;99.90
23629;DHT22;11991;57.150;-2.134;2023-02-02T09:36:12;6.70;99.90
23629;DHT22;11991;57.150;-2.134;2023-02-02T09:38:40;6.70;99.90
23629;DHT22;11991;57.150;-2.134;2023-02-02T09:44:19;6.80;99.90
23629;DHT22;11991;57.150;-2.134;2023-02-02T09:50:00;6.80;99.90
23629;DHT22;11991;57.150;-2.134;2023-02-02T09:57:42;6.90;99.90
23629;DHT22;11991;57.150;-2.134;2023-02-02T10:00:28;6.90;99.90
23629;DHT22;11991;57.150;-2.134;2023-02-02T10:03:05;7.00;99.90
23629;DHT22;11991;57.150;-2.134;2023-02-02T10:05:53;7.00;99.90
23629;DHT22;11991;57.150;-2.134;2023-02-02T10:08:32;7.00;99.90
23629;DHT22;11991;57.150;-2.134;2023-02-02T10:11:26;7.00;99.90
23629;DHT22;11991;57.150;-2.134;2023-02-02T10:14:01;7.10;99.90
23629;DHT22;11991;57.150;-2.134;2023-02-02T10:16:30;7.10;99.90
23629;DHT22;11991;57.150;-2.134;2023-02-02T10:19:05;7.10;99.90
23629;DHT22;11991;57.150;-2.134;2023-02-02T10:21:53;7.20;99.90
23629;DHT22;11991;57.150;-2.134;2023-02-02T10:24:26;7.20;99.90
23629;DHT22;11991;57.150;-2.134;2023-02-02T10:26:56;7.20;99.90
23629;DHT22;11991;57.150;-2.134;2023-02-02T10:32:27;7.30;99.90
23629;DHT22;11991;57.150;-2.134;2023-02-02T10:35:26;7.30;99.90
23629;DHT22;11991;57.150;-2.134;2023-02-02T10:38:07;7.40;99.90
23629;DHT22;11991;57.150;-2.134;2023-02-02T10:40:50;7.40;99.90
23629;DHT22;11991;57.150;-2.134;2023-02-02T10:49:32;7.50;99.90
23629;DHT22;11991;57.150;-2.134;2023-02-02T10:52:24;7.60;99.90
23629;DHT22;11991;57.150;-2.134;2023-02-02T10:55:13;7.60;99.90
23629;DHT22;11991;57.150;-2.134;2023-02-02T10:58:10;7.70;99.90
23629;DHT22;11991;57.150;-2.134;2023-02-02T11:00:53;7.70;99.90
23629;DHT22;11991;57.150;-2.134;2023-02-02T11:03:31;7.70;99.90
23629;DHT22;11991;57.150;-2.134;2023-02-02T11:06:01;7.80;99.90
23629;DHT22;11991;57.150;-2.134;2023-02-02T11:08:49;7.80;99.90
23629;DHT22;11991;57.150;-2.134;2023-02-02T11:16:41;8.00;99.90
23629;DHT22;11991;57.150;-2.134;2023-02-02T11:21:48;8.00;99.90
23629;DHT22;11991;57.150;-2.134;2023-02-02T11:24:45;8.10;99.90
23629;DHT22;11991;57.150;-2.134;2023-02-02T11:27:14;8.10;99.90
23629;DHT22;11991;57.150;-2.134;2023-02-02T11:29:46;8.20;99.90
23629;DHT22;11991;57.150;-2.134;2023-02-02T11:32:32;8.20;99.90
23629;DHT22;11991;57.150;-2.134;2023-02-02T11:37:34;8.20;99.90
23629;DHT22;11991;57.150;-2.134;2023-02-02T11:42:51;8.30;99.90
23629;DHT22;11991;57.150;-2.134;2023-02-02T11:45:28;8.30;99.90
23629;DHT22;11991;57.150;-2.134;2023-02-02T11:48:01;8.30;99.90
23629;DHT22;11991;57.150;-2.134;2023-02-02T11:50:30;8.30;99.90
23629;DHT22;11991;57.150;-2.134;2023-02-02T11:52:58;8.40;99.90
23629;DHT22;11991;57.150;-2.134;2023-02-02T11:55:30;8.40;99.90
23629;DHT22;11991;57.150;-2.134;2023-02-02T11:58:19;8.40;99.90
23629;DHT22;11991;57.150;-2.134;2023-02-02T12:00:54;8.40;99.90
23629;DHT22;11991;57.150;-2.134;2023-02-02T12:03:28;8.40;99.90
23629;DHT22;11991;57.150;-2.134;2023-02-02T12:05:57;8.50;99.90
23629;DHT22;11991;57.150;-2.134;2023-02-02T12:08:26;8.50;99.90
23629;DHT22;11991;57.150;-2.134;2023-02-02T12:41:17;9.00;99.90
23629;DHT22;11991;57.150;-2.134;2023-02-02T12:43:51;9.00;99.90
23629;DHT22;11991;57.150;-2.134;2023-02-02T12:46:45;9.10;99.90
23629;DHT22;11991;57.150;-2.134;2023-02-02T12:49:45;9.10;99.90
23629;DHT22;11991;57.150;-2.134;2023-02-02T12:52:43;9.10;99.90
23629;DHT22;11991;57.150;-2.134;2023-02-02T13:01:19;9.00;99.90
23629;DHT22;11991;57.150;-2.134;2023-02-02T13:12:46;9.00;99.90
23629;DHT22;11991;57.150;-2.134;2023-02-02T13:15:18;9.00;99.90
23629;DHT22;11991;57.150;-2.134;2023-02-02T13:17:59;9.00;99.90
23629;DHT22;11991;57.150;-2.134;2023-02-02T13:23:20;9.00;99.90
23629;DHT22;11991;57.150;-2.134;2023-02-02T13:26:06;9.00;99.90
23629;DHT22;11991;57.150;-2.134;2023-02-02T13:31:43;9.00;99.90
23629;DHT22;11991;57.150;-2.134;2023-02-02T13:34:23;9.00;99.90
23629;DHT22;11991;57.150;-2.134;2023-02-02T13:49:19;9.00;99.90
23629;DHT22;11991;57.150;-2.134;2023-02-02T13:57:18;9.10;99.90
23629;DHT22;11991;57.150;-2.134;2023-02-02T14:02:46;9.20;99.90
23629;DHT22;11991;57.150;-2.134;2023-02-02T14:05:24;9.20;99.90
23629;DHT22;11991;57.150;-2.134;2023-02-02T14:10:34;9.20;99.90
23629;DHT22;11991;57.150;-2.134;2023-02-02T14:13:20;9.20;99.90
23629;DHT22;11991;57.150;-2.134;2023-02-02T14:16:21;9.20;99.90
23629;DHT22;11991;57.150;-2.134;2023-02-02T14:26:50;9.30;99.90
23629;DHT22;11991;57.150;-2.134;2023-02-02T14:38:03;9.30;99.90
23629;DHT22;11991;57.150;-2.134;2023-02-02T14:40:38;9.30;99.90
23629;DHT22;11991;57.150;-2.134;2023-02-02T14:46:22;9.30;99.90
23629;DHT22;11991;57.150;-2.134;2023-02-02T14:51:23;9.30;99.90
23629;DHT22;11991;57.150;-2.134;2023-02-02T14:53:54;9.30;99.90
23629;DHT22;11991;57.150;-2.134;2023-02-02T14:56:38;9.30;99.90
23629;DHT22;11991;57.150;-2.134;2023-02-02T15:02:07;9.30;99.90
23629;DHT22;11991;57.150;-2.134;2023-02-02T15:04:36;9.30;99.90
23629;DHT22;11991;57.150;-2.134;2023-02-02T15:09:50;9.30;99.90
23629;DHT22;11991;57.150;-2.134;2023-02-02T15:12:25;9.30;99.90
23629;DHT22;11991;57.150;-2.134;2023-02-02T15:23:39;9.20;99.90
23629;DHT22;11991;57.150;-2.134;2023-02-02T15:26:23;9.30;99.90
23629;DHT22;11991;57.150;-2.134;2023-02-02T15:28:56;9.30;99.90
23629;DHT22;11991;57.150;-2.134;2023-02-02T15:31:35;9.30;99.90
23629;DHT22;11991;57.150;-2.134;2023-02-02T15:37:06;9.40;99.90
23629;DHT22;11991;57.150;-2.134;2023-02-02T15:39:39;9.40;99.90
23629;DHT22;11991;57.150;-2.134;2023-02-02T15:42:41;9.50;99.90
23629;DHT22;11991;57.150;-2.134;2023-02-02T15:47:57;9.60;99.90
23629;DHT22;11991;57.150;-2.134;2023-02-02T15:50:25;9.70;99.90
23629;DHT22;11991;57.150;-2.134;2023-02-02T15:52:53;9.70;99.90
23629;DHT22;11991;57.150;-2.134;2023-02-02T15:55:52;9.70;99.90
23629;DHT22;11991;57.150;-2.134;2023-02-02T15:58:29;9.80;99.90
23629;DHT22;11991;57.150;-2.134;2023-02-02T16:01:19;9.80;99.90
23629;DHT22;11991;57.150;-2.134;2023-02-02T16:04:16;9.80;99.90
23629;DHT22;11991;57.150;-2.134;2023-02-02T16:06:46;9.80;99.90
23629;DHT22;11991;57.150;-2.134;2023-02-02T16:09:22;9.80;99.90
23629;DHT22;11991;57.150;-2.134;2023-02-02T16:11:51;9.80;99.90
23629;DHT22;11991;57.150;-2.134;2023-02-02T16:17:11;9.80;99.90
23629;DHT22;11991;57.150;-2.134;2023-02-02T16:19:41;9.80;99.90
23629;DHT22;11991;57.150;-2.134;2023-02-02T16:22:15;9.90;99.90
23629;DHT22;11991;57.150;-2.134;2023-02-02T16:24:50;9.90;99.90
23629;DHT22;11991;57.150;-2.134;2023-02-02T16:27:22;9.90;99.90
23629;DHT22;11991;57.150;-2.134;2023-02-02T16:29:51;10.00;99.90
23629;DHT22;11991;57.150;-2.134;2023-02-02T16:32:41;9.90;99.90
23629;DHT22;11991;57.150;-2.134;2023-02-02T16:35:37;9.90;99.90
23629;DHT22;11991;57.150;-2.134;2023-02-02T16:38:33;9.90;99.90
23629;DHT22;11991;57.150;-2.134;2023-02-02T16:41:05;9.80;99.90
23629;DHT22;11991;57.150;-2.134;2023-02-02T16:43:36;9.80;99.90
23629;DHT22;11991;57.150;-2.134;2023-02-02T16:46:13;9.70;99.90
23629;DHT22;11991;57.150;-2.134;2023-02-02T16:48:43;9.70;99.90
23629;DHT22;11991;57.150;-2.134;2023-02-02T16:56:45;9.60;99.90
23629;DHT22;11991;57.150;-2.134;2023-02-02T16:59:27;9.50;99.90
23629;DHT22;11991;57.150;-2.134;2023-02-02T17:01:57;9.50;99.90
23629;DHT22;11991;57.150;-2.134;2023-02-02T17:04:29;9.40;99.90
23629;DHT22;11991;57.150;-2.134;2023-02-02T17:07:11;9.40;99.90
23629;DHT22;11991;57.150;-2.134;2023-02-02T17:09:42;9.40;99.90
23629;DHT22;11991;57.150;-2.134;2023-02-02T17:17:46;9.30;99.90
23629;DHT22;11991;57.150;-2.134;2023-02-02T17:20:17;9.40;99.90
23629;DHT22;11991;57.150;-2.134;2023-02-02T17:22:47;9.40;99.90
23629;DHT22;11991;57.150;-2.134;2023-02-02T17:25:29;9.40;99.90
23629;DHT22;11991;57.150;-2.134;2023-02-02T17:27:59;9.50;99.90
23629;DHT22;11991;57.150;-2.134;2023-02-02T17:30:28;9.50;99.90
23629;DHT22;11991;57.150;-2.134;2023-02-02T17:32:56;9.50;99.90
23629;DHT22;11991;57.150;-2.134;2023-02-02T17:35:25;9.60;99.90
23629;DHT22;11991;57.150;-2.134;2023-02-02T17:37:58;9.60;99.90
23629;DHT22;11991;57.150;-2.134;2023-02-02T17:40:25;9.60;99.90
23629;DHT22;11991;57.150;-2.134;2023-02-02T17:42:53;9.60;99.90
23629;DHT22;11991;57.150;-2.134;2023-02-02T17:45:47;9.60;99.90
23629;DHT22;11991;57.150;-2.134;2023-02-02T17:48:18;9.70;99.90
23629;DHT22;11991;57.150;-2.134;2023-02-02T17:50:47;9.70;99.90
23629;DHT22;11991;57.150;-2.134;2023-02-02T17:53:17;9.70;99.90
23629;DHT22;11991;57.150;-2.134;2023-02-02T17:55:46;9.70;99.90
23629;DHT22;11991;57.150;-2.134;2023-02-02T17:58:14;9.70;99.90
23629;DHT22;11991;57.150;-2.134;2023-02-02T18:00:51;9.70;99.90
23629;DHT22;11991;57.150;-2.134;2023-02-02T18:03:22;9.70;99.90
23629;DHT22;11991;57.150;-2.134;2023-02-02T18:05:51;9.70;99.90
23629;DHT22;11991;57.150;-2.134;2023-02-02T18:08:18;9.70;99.90
23629;DHT22;11991;57.150;-2.134;2023-02-02T18:10:46;9.70;99.90
23629;DHT22;11991;57.150;-2.134;2023-02-02T18:13:15;9.70;99.90
23629;DHT22;11991;57.150;-2.134;2023-02-02T18:15:43;9.70;99.90
23629;DHT22;11991;57.150;-2.134;2023-02-02T18:18:11;9.70;99.90
23629;DHT22;11991;57.150;-2.134;2023-02-02T18:20:46;9.60;99.90
23629;DHT22;11991;57.150;-2.134;2023-02-02T18:23:15;9.60;99.90
23629;DHT22;11991;57.150;-2.134;2023-02-02T18:25:43;9.60;99.90
23629;DHT22;11991;57.150;-2.134;2023-02-02T18:28:11;9.50;99.90
23629;DHT22;11991;57.150;-2.134;2023-02-02T18:30:45;9.50;99.90
23629;DHT22;11991;57.150;-2.134;2023-02-02T18:33:14;9.50;99.90
23629;DHT22;11991;57.150;-2.134;2023-02-02T18:35:46;9.50;99.90
23629;DHT22;11991;57.150;-2.134;2023-02-02T18:38:16;9.40;99.90
23629;DHT22;11991;57.150;-2.134;2023-02-02T18:40:44;9.50;99.90
23629;DHT22;11991;57.150;-2.134;2023-02-02T18:43:11;9.50;99.90
23629;DHT22;11991;57.150;-2.134;2023-02-02T18:45:38;9.50;99.90
23629;DHT22;11991;57.150;-2.134;2023-02-02T18:48:05;9.50;99.90
23629;DHT22;11991;57.150;-2.134;2023-02-02T18:50:34;9.40;99.90
23629;DHT22;11991;57.150;-2.134;2023-02-02T18:53:02;9.40;99.90
23629;DHT22;11991;57.150;-2.134;2023-02-02T18:55:29;9.40;99.90
23629;DHT22;11991;57.150;-2.134;2023-02-02T18:57:56;9.40;99.90
23629;DHT22;11991;57.150;-2.134;2023-02-02T19:00:24;9.40;99.90
23629;DHT22;11991;57.150;-2.134;2023-02-02T19:02:52;9.30;99.90
23629;DHT22;11991;57.150;-2.134;2023-02-02T19:05:20;9.30;99.90
23629;DHT22;11991;57.150;-2.134;2023-02-02T19:08:06;9.30;99.90
23629;DHT22;11991;57.150;-2.134;2023-02-02T19:10:33;9.30;99.90
23629;DHT22;11991;57.150;-2.134;2023-02-02T19:13:13;9.30;99.90
23629;DHT22;11991;57.150;-2.134;2023-02-02T19:15:46;9.30;99.90